.
WxDataArchive / Data Records for 2013-02-07
2013-02-06 February 2013 2013-02-08

Data Records for Thursday, 07 February 2013

Time	Temp	Chill	HIndex	Humid	Dewpt	 Wind 	HiWind	WindDir	Rain 	Barom 
-----	----	-----	------	-----	-----	------	------	-------	-----	----- 
00:00	25.4	25.4	25.4	73	18.0	0	1	112	0.00	30.247 
00:05	25.4	25.4	25.4	73	18.0	0	1	112	0.00	30.247 
00:10	25.4	25.4	25.4	73	18.0	0	1	112	0.00	30.247 
00:15	25.4	25.4	25.4	73	18.0	0	0	---	0.00	30.254 
00:20	25.4	25.4	25.4	74	18.3	0	0	---	0.00	30.254 
00:25	25.4	25.4	25.4	74	18.3	0	2	112	0.00	30.254 
00:30	25.4	25.4	25.4	74	18.3	0	2	112	0.00	30.252 
00:35	25.6	25.6	25.6	74	18.5	0	2	112	0.00	30.252 
00:40	25.6	25.6	25.6	74	18.5	0	1	112	0.00	30.252 
00:45	25.6	25.6	25.6	75	18.8	1	2	112	0.00	30.242 
00:50	25.6	25.6	25.6	75	18.8	1	2	112	0.00	30.242 
00:55	25.6	25.6	25.6	75	18.8	1	3	112	0.00	30.242 
01:00	25.4	25.4	25.4	75	18.6	1	3	112	0.00	30.238 
01:05	25.4	25.4	25.4	75	18.6	1	3	112	0.00	30.238 
01:10	25.4	25.4	25.4	76	18.9	1	2	112	0.00	30.238 
01:15	25.4	25.4	25.4	76	18.9	1	3	112	0.00	30.247 
01:20	25.4	25.4	25.4	76	18.9	0	2	112	0.00	30.247 
01:25	25.4	25.4	25.4	76	18.9	0	0	---	0.00	30.247 
01:30	25.4	25.4	25.4	76	18.9	1	2	112	0.00	30.249 
01:35	25.3	25.3	25.3	77	19.1	0	2	112	0.00	30.249 
01:40	25.3	25.3	25.3	77	19.1	0	1	112	0.00	30.249 
01:45	25.1	25.1	25.1	77	18.9	0	2	112	0.00	30.250 
01:50	25.0	25.0	25.0	77	18.8	0	2	112	0.00	30.250 
01:55	24.8	24.8	24.8	78	18.9	1	2	112	0.00	30.250 
02:00	24.8	24.8	24.8	78	18.9	1	3	112	0.00	30.240 
02:05	24.7	24.7	24.7	78	18.8	1	2	112	0.00	30.240 
02:10	24.7	24.7	24.7	78	18.8	1	3	112	0.00	30.240 
02:15	24.5	24.5	24.5	78	18.6	2	4	112	0.00	30.223 
02:20	24.5	24.5	24.5	78	18.6	2	6	90	0.00	30.223 
02:25	24.4	24.4	24.4	78	18.5	2	5	90	0.00	30.223 
02:30	24.4	24.4	24.4	79	18.8	3	6	90	0.00	30.212 
02:35	24.4	24.4	24.4	79	18.8	2	4	90	0.00	30.212 
02:40	24.5	24.5	24.5	80	19.2	2	6	90	0.00	30.212 
02:45	24.7	24.7	24.7	79	19.1	1	4	112	0.00	30.198 
02:50	24.8	24.8	24.8	80	19.5	1	2	112	0.00	30.198 
02:55	25.0	25.0	25.0	80	19.7	0	2	112	0.00	30.198 
03:00	25.1	25.1	25.1	80	19.8	0	1	112	0.00	30.204 
03:05	25.1	25.1	25.1	80	19.8	0	1	112	0.00	30.204 
03:10	25.3	25.3	25.3	80	20.0	0	1	112	0.00	30.204 
03:15	25.4	25.4	25.4	80	20.1	1	2	112	0.00	30.207 
03:20	25.4	25.4	25.4	80	20.1	1	2	112	0.00	30.207 
03:25	25.6	25.6	25.6	80	20.3	1	3	112	0.00	30.207 
03:30	25.6	25.6	25.6	80	20.3	0	2	112	0.00	30.206 
03:35	25.4	25.4	25.4	80	20.1	1	3	112	0.00	30.206 
03:40	25.4	25.4	25.4	80	20.1	1	4	112	0.00	30.206 
03:45	25.4	25.4	25.4	81	20.4	1	3	112	0.00	30.208 
03:50	25.3	25.3	25.3	81	20.3	1	4	90	0.00	30.208 
03:55	25.3	25.3	25.3	81	20.3	2	4	90	0.00	30.208 
04:00	25.3	25.3	25.3	81	20.3	1	5	90	0.00	30.207 
04:05	25.1	25.1	25.1	81	20.1	1	5	90	0.00	30.207 
04:10	25.0	25.0	25.0	81	20.0	2	4	90	0.00	30.207 
04:15	24.8	24.8	24.8	81	19.8	2	5	90	0.00	30.205 
04:20	24.7	24.7	24.7	81	19.7	2	4	90	0.00	30.205 
04:25	24.7	24.7	24.7	85	20.8	2	4	90	0.00	30.205 
04:30	24.5	24.5	24.5	81	19.5	3	5	90	0.00	30.199 
04:35	24.5	24.5	24.5	81	19.5	2	5	90	0.00	30.199 
04:40	24.5	24.5	24.5	81	19.5	2	5	90	0.00	30.199 
04:45	24.7	24.7	24.7	82	20.0	1	4	90	0.00	30.199 
04:50	24.7	24.7	24.7	82	20.0	1	3	90	0.00	30.199 
04:55	24.7	24.7	24.7	82	20.0	2	5	90	0.00	30.199 
05:00	24.8	24.8	24.8	82	20.1	2	5	90	0.00	30.193 
05:05	25.0	25.0	25.0	81	20.0	2	5	90	0.00	30.193 
05:10	25.0	25.0	25.0	81	20.0	3	5	90	0.00	30.193 
05:15	25.1	25.1	25.1	81	20.1	2	5	90	0.00	30.195 
05:20	25.1	25.1	25.1	81	20.1	1	3	90	0.00	30.195 
05:25	25.0	25.0	25.0	81	20.0	1	4	90	0.00	30.195 
05:30	25.0	25.0	25.0	81	20.0	2	4	90	0.00	30.201 
05:35	25.0	25.0	25.0	81	20.0	2	5	90	0.00	30.201 
05:40	25.1	25.1	25.1	80	19.8	1	4	90	0.00	30.201 
05:45	25.1	25.1	25.1	80	19.8	1	4	90	0.00	30.205 
05:50	25.1	25.1	25.1	80	19.8	2	4	68	0.00	30.205 
05:55	25.0	25.0	25.0	80	19.7	1	4	90	0.00	30.205 
06:00	25.0	25.0	25.0	80	19.7	1	6	112	0.00	30.209 
06:05	24.8	24.8	24.8	80	19.5	2	5	112	0.00	30.209 
06:10	24.8	24.8	24.8	79	19.2	2	3	68	0.00	30.209 
06:15	24.8	24.8	24.8	79	19.2	2	4	68	0.00	30.210 
06:20	24.8	24.8	24.8	79	19.2	2	4	68	0.00	30.210 
06:25	24.8	24.8	24.8	79	19.2	2	4	90	0.00	30.210 
06:30	24.7	24.7	24.7	79	19.1	2	6	90	0.00	30.196 
06:35	24.7	24.7	24.7	79	19.1	2	4	90	0.00	30.196 
06:40	24.5	24.5	24.5	78	18.6	2	4	90	0.00	30.196 
06:45	24.4	24.4	24.4	78	18.5	1	5	90	0.00	30.197 
06:50	24.4	24.4	24.4	78	18.5	1	3	90	0.00	30.197 
06:55	24.2	24.2	24.2	78	18.3	1	3	68	0.00	30.197 
07:00	24.1	24.1	24.1	78	18.3	1	2	68	0.00	30.198 
07:05	24.1	24.1	24.1	79	18.5	1	2	68	0.00	30.198 
07:10	23.9	23.9	23.9	79	18.4	1	3	68	0.00	30.198 
07:15	23.9	23.9	23.9	79	18.4	1	3	90	0.00	30.184 
07:20	23.9	23.9	23.9	79	18.4	1	3	90	0.00	30.184 
07:25	23.9	23.9	23.9	79	18.4	1	4	90	0.00	30.184 
07:30	23.9	23.9	23.9	79	18.4	1	4	112	0.00	30.188 
07:35	23.9	23.9	23.9	79	18.4	1	3	112	0.00	30.188 
07:40	24.1	24.1	24.1	79	18.5	0	2	112	0.00	30.188 
07:45	23.9	23.9	23.9	79	18.4	1	4	90	0.00	30.185 
07:50	23.8	23.8	23.8	79	18.3	1	4	90	0.00	30.185 
07:55	23.8	23.8	23.8	79	18.3	0	3	90	0.00	30.185 
08:00	23.6	23.6	23.6	79	18.1	1	2	90	0.00	30.183 
08:05	23.6	23.6	23.6	79	18.1	1	3	90	0.00	30.183 
08:10	23.6	23.6	23.6	79	18.1	1	3	90	0.00	30.183 
08:15	23.6	23.6	23.6	79	18.1	1	3	90	0.00	30.180 
08:20	23.6	23.6	23.6	79	18.1	0	3	90	0.00	30.180 
08:25	23.6	23.6	23.6	79	18.1	2	4	90	0.00	30.180 
08:30	23.6	23.6	23.6	79	18.1	1	3	90	0.00	30.178 
08:35	23.9	23.9	23.9	79	18.4	1	3	90	0.00	30.178 
08:40	24.4	24.4	24.4	79	18.8	0	2	90	0.00	30.178 
08:45	25.1	25.1	25.1	77	18.9	1	3	90	0.00	30.178 
08:50	25.6	25.6	25.6	76	19.1	2	5	90	0.00	30.178 
08:55	26.0	26.0	26.0	76	19.5	1	2	90	0.00	30.178 
09:00	26.4	26.4	26.4	75	19.6	0	3	90	0.00	30.172 
09:05	26.6	26.6	26.6	73	19.1	1	3	90	0.00	30.172 
09:10	26.4	26.4	26.4	73	18.9	1	4	90	0.00	30.172 
09:15	26.0	26.0	26.0	74	18.9	2	4	90	0.00	30.167 
09:20	25.7	25.7	25.7	75	18.9	2	6	112	0.00	30.167 
09:25	25.6	25.6	25.6	76	19.1	1	4	112	0.00	30.167 
09:30	25.6	25.6	25.6	76	19.1	0	3	112	0.00	30.173 
09:35	25.6	25.6	25.6	76	19.1	0	1	112	0.00	30.173 
09:40	25.7	25.7	25.7	76	19.2	0	2	112	0.00	30.173 
09:45	25.8	25.8	25.8	76	19.3	1	3	112	0.00	30.174 
09:50	26.0	26.0	26.0	76	19.5	1	3	112	0.00	30.174 
09:55	26.3	26.3	26.3	76	19.8	1	6	112	0.00	30.174 
10:00	26.4	26.4	26.4	75	19.6	1	3	90	0.00	30.169 
10:05	26.6	26.6	26.6	75	19.8	1	4	90	0.00	30.169 
10:10	26.6	26.6	26.6	74	19.5	2	4	90	0.00	30.169 
10:15	26.4	26.4	26.4	74	19.3	2	5	90	0.00	30.161 
10:20	26.7	26.7	26.7	75	19.9	1	4	90	0.00	30.161 
10:25	27.5	27.5	27.5	74	20.3	1	4	90	0.00	30.161 
10:30	28.2	28.2	28.2	73	20.7	2	5	90	0.00	30.155 
10:35	28.7	28.7	28.7	71	20.5	1	3	90	0.00	30.155 
10:40	28.5	28.5	28.5	71	20.3	2	4	90	0.00	30.155 
10:45	28.5	28.5	28.5	72	20.6	2	4	90	0.00	30.145 
10:50	29.0	29.0	29.0	71	20.8	1	3	90	0.00	30.145 
10:55	29.3	29.3	29.3	70	20.8	2	6	90	0.00	30.145 
11:00	29.4	29.4	29.4	70	20.8	3	6	90	0.00	30.142 
11:05	29.3	29.3	29.3	70	20.8	3	6	112	0.00	30.142 
11:10	29.1	29.1	29.1	70	20.6	2	5	90	0.00	30.142 
11:15	29.4	29.4	29.4	70	20.8	3	5	90	0.00	30.139 
11:20	29.4	29.4	29.4	70	20.8	3	7	90	0.00	30.139 
11:25	29.5	29.5	29.5	70	20.9	3	5	90	0.00	30.139 
11:30	29.5	29.5	29.5	70	20.9	3	6	90	0.01	30.126 
11:35	29.7	29.7	29.7	71	21.5	2	6	90	0.00	30.126 
11:40	29.8	29.8	29.8	71	21.6	3	9	90	0.00	30.126 
11:45	30.1	30.1	30.1	72	22.2	2	6	112	0.00	30.115 
11:50	30.7	30.7	30.7	71	22.4	1	3	112	0.00	30.115 
11:55	31.3	31.3	31.3	70	22.7	1	3	112	0.00	30.115 
12:00	31.6	31.6	31.6	70	23.0	1	3	90	0.00	30.119 
12:05	31.6	31.6	31.6	69	22.6	2	5	90	0.00	30.119 
12:10	31.8	31.8	31.8	70	23.2	3	5	90	0.00	30.119 
12:15	32.2	32.2	32.2	69	23.2	3	7	90	0.00	30.095 
12:20	32.4	32.4	32.4	69	23.4	2	5	112	0.00	30.095 
12:25	32.7	32.7	32.7	70	24.0	1	4	112	0.00	30.095 
12:30	32.9	32.9	32.9	70	24.2	2	7	112	0.00	30.083 
12:35	33.1	33.1	33.1	69	24.1	3	6	90	0.00	30.083 
12:40	33.1	33.1	33.1	69	24.1	2	5	135	0.00	30.083 
12:45	33.2	33.2	33.2	69	24.2	2	5	90	0.00	30.075 
12:50	33.5	33.5	33.5	69	24.4	1	4	112	0.00	30.075 
12:55	33.5	33.5	33.5	69	24.4	2	5	112	0.00	30.075 
13:00	33.7	33.7	33.7	69	24.6	2	5	112	0.00	30.073 
13:05	33.7	33.7	33.7	69	24.6	2	5	112	0.00	30.073 
13:10	33.8	33.8	33.8	69	24.7	2	6	112	0.00	30.073 
13:15	33.8	33.8	33.8	69	24.7	2	6	90	0.00	30.060 
13:20	33.8	33.8	33.8	69	24.7	3	5	112	0.00	30.060 
13:25	33.8	33.8	33.8	69	24.7	2	6	90	0.00	30.060 
13:30	33.8	33.8	33.8	69	24.7	3	6	112	0.00	30.055 
13:35	34.1	34.1	34.1	69	25.0	2	5	90	0.00	30.055 
13:40	34.4	34.4	34.4	69	25.3	1	4	90	0.00	30.055 
13:45	34.6	34.6	34.6	69	25.5	2	6	112	0.00	30.044 
13:50	34.6	34.6	34.6	69	25.5	2	7	90	0.00	30.044 
13:55	34.6	34.6	34.6	69	25.5	3	6	112	0.00	30.044 
14:00	34.6	34.6	34.6	69	25.5	3	5	112	0.01	30.033 
14:05	34.7	34.7	34.7	68	25.2	2	7	90	0.00	30.033 
14:10	34.9	34.9	34.9	69	25.8	2	5	112	0.00	30.033 
14:15	34.9	34.9	34.9	69	25.8	3	7	90	0.00	30.026 
14:20	35.0	35.0	35.0	68	25.5	3	6	112	0.00	30.026 
14:25	35.0	35.0	35.0	69	25.9	3	5	90	0.00	30.026 
14:30	35.2	35.2	35.2	69	26.1	3	7	90	0.00	30.010 
14:35	35.5	35.5	35.5	69	26.4	3	7	112	0.00	30.010 
14:40	35.6	32.2	35.6	68	26.1	4	8	90	0.00	30.010 
14:45	35.8	32.5	35.8	69	26.6	4	7	112	0.00	29.996 
14:50	35.9	32.6	35.9	68	26.4	4	8	90	0.00	29.996 
14:55	36.3	36.3	36.3	69	27.1	2	6	90	0.00	29.996 
15:00	36.3	33.0	36.3	68	26.8	4	9	90	0.00	29.986 
15:05	36.5	33.3	36.5	68	27.0	4	7	112	0.00	29.986 
15:10	36.6	32.5	36.6	68	27.1	5	9	90	0.00	29.986 
15:15	36.8	33.6	36.8	68	27.2	4	10	90	0.00	29.974 
15:20	36.9	36.9	36.9	68	27.3	2	8	90	0.00	29.974 
15:25	36.9	33.7	36.9	68	27.3	4	10	90	0.00	29.974 
15:30	37.0	33.9	37.0	68	27.4	4	8	90	0.00	29.966 
15:35	37.2	34.1	37.2	67	27.3	4	9	90	0.00	29.966 
15:40	37.5	37.5	37.5	67	27.6	3	7	90	0.00	29.966 
15:45	37.6	37.6	37.6	67	27.7	3	8	90	0.00	29.963 
15:50	37.6	34.5	37.6	67	27.7	4	9	90	0.00	29.963 
15:55	37.6	37.6	37.6	67	27.7	3	7	90	0.00	29.963 
16:00	37.6	37.6	37.6	67	27.7	3	9	90	0.01	29.962 
16:05	37.5	37.5	37.5	67	27.6	3	6	90	0.00	29.962 
16:10	37.6	37.6	37.6	67	27.7	2	6	90	0.00	29.962 
16:15	37.6	37.6	37.6	67	27.7	3	7	90	0.00	29.962 
16:20	37.6	34.5	37.6	67	27.7	4	9	90	0.00	29.962 
16:25	37.6	34.5	37.6	67	27.7	4	10	90	0.00	29.962 
16:30	37.6	34.5	37.6	68	28.0	4	8	90	0.00	29.957 
16:35	37.8	37.8	37.8	68	28.2	3	7	90	0.00	29.957 
16:40	37.8	34.8	37.8	68	28.2	4	7	90	0.00	29.957 
16:45	37.8	34.8	37.8	68	28.2	4	10	90	0.00	29.949 
16:50	37.8	37.8	37.8	69	28.6	2	5	90	0.00	29.949 
16:55	37.6	37.6	37.6	69	28.4	3	7	90	0.00	29.949 
17:00	37.5	37.5	37.5	69	28.3	3	6	90	0.01	29.946 
17:05	37.5	37.5	37.5	69	28.3	2	5	90	0.00	29.946 
17:10	37.3	37.3	37.3	70	28.4	3	6	90	0.00	29.946 
17:15	37.3	37.3	37.3	70	28.4	2	6	90	0.00	29.946 
17:20	37.3	37.3	37.3	71	28.8	2	5	90	0.00	29.946 
17:25	37.3	37.3	37.3	71	28.8	2	7	90	0.00	29.946 
17:30	37.3	37.3	37.3	71	28.8	3	6	90	0.00	29.939 
17:35	37.2	37.2	37.2	71	28.7	3	5	90	0.00	29.939 
17:40	37.0	37.0	37.0	72	28.8	3	7	90	0.00	29.939 
17:45	36.9	36.9	36.9	73	29.1	3	5	112	0.00	29.930 
17:50	36.8	36.8	36.8	73	29.0	2	5	90	0.00	29.930 
17:55	36.6	36.6	36.6	74	29.1	3	5	90	0.00	29.930 
18:00	36.5	33.3	36.5	74	29.0	4	7	90	0.00	29.919 
18:05	36.5	33.3	36.5	74	29.0	4	8	90	0.01	29.919 
18:10	36.3	36.3	36.3	75	29.1	3	6	90	0.00	29.919 
18:15	36.2	36.2	36.2	75	29.1	2	5	90	0.00	29.918 
18:20	36.0	36.0	36.0	76	29.2	2	7	112	0.00	29.918 
18:25	35.9	35.9	35.9	76	29.1	3	6	90	0.00	29.918 
18:30	35.9	35.9	35.9	76	29.1	3	5	90	0.00	29.918 
18:35	35.8	35.8	35.8	77	29.3	2	5	90	0.00	29.918 
18:40	35.8	35.8	35.8	77	29.3	2	4	90	0.00	29.918 
18:45	35.6	35.6	35.6	77	29.1	2	4	112	0.00	29.914 
18:50	35.6	35.6	35.6	77	29.1	2	5	90	0.00	29.914 
18:55	35.5	35.5	35.5	78	29.3	3	6	90	0.00	29.914 
19:00	35.5	35.5	35.5	78	29.3	2	5	90	0.00	29.901 
19:05	35.5	35.5	35.5	78	29.3	3	5	90	0.00	29.901 
19:10	35.5	35.5	35.5	78	29.3	3	7	90	0.00	29.901 
19:15	35.5	35.5	35.5	78	29.3	3	6	90	0.00	29.899 
19:20	35.6	35.6	35.6	78	29.4	3	7	90	0.00	29.899 
19:25	35.6	35.6	35.6	78	29.4	2	5	90	0.00	29.899 
19:30	35.8	35.8	35.8	77	29.3	3	5	90	0.00	29.895 
19:35	35.9	32.6	35.9	77	29.4	4	7	112	0.00	29.895 
19:40	35.9	32.6	35.9	77	29.4	4	7	90	0.00	29.895 
19:45	35.9	32.6	35.9	77	29.4	4	7	90	0.00	29.874 
19:50	35.8	35.8	35.8	78	29.6	3	7	90	0.00	29.874 
19:55	35.8	32.5	35.8	78	29.6	4	8	90	0.00	29.874 
20:00	35.8	35.8	35.8	78	29.6	2	5	112	0.00	29.874 
20:05	35.8	35.8	35.8	78	29.6	2	7	90	0.00	29.874 
20:10	35.9	35.9	35.9	78	29.7	2	5	90	0.00	29.874 
20:15	35.9	35.9	35.9	78	29.7	3	6	90	0.00	29.865 
20:20	35.9	35.9	35.9	78	29.7	3	5	90	0.00	29.865 
20:25	35.9	32.6	35.9	78	29.7	4	6	90	0.00	29.865 
20:30	35.9	32.6	35.9	78	29.7	4	7	90	0.00	29.852 
20:35	35.8	35.8	35.8	78	29.6	3	8	90	0.00	29.852 
20:40	35.8	32.5	35.8	79	29.9	4	9	90	0.01	29.852 
20:45	35.8	35.8	35.8	79	29.9	3	6	90	0.00	29.847 
20:50	35.8	35.8	35.8	79	29.9	3	6	90	0.00	29.847 
20:55	35.6	35.6	35.6	79	29.7	2	4	90	0.00	29.847 
21:00	35.6	35.6	35.6	80	30.1	3	8	90	0.00	29.839 
21:05	35.6	35.6	35.6	80	30.1	3	6	90	0.00	29.839 
21:10	35.6	35.6	35.6	80	30.1	3	6	90	0.00	29.839 
21:15	35.5	35.5	35.5	81	30.3	1	5	90	0.00	29.835 
21:20	35.5	35.5	35.5	81	30.3	1	5	90	0.00	29.835 
21:25	35.3	35.3	35.3	81	30.1	2	5	90	0.00	29.835 
21:30	35.3	35.3	35.3	81	30.1	1	4	90	0.00	29.828 
21:35	35.2	35.2	35.2	82	30.3	2	5	90	0.00	29.828 
21:40	35.2	35.2	35.2	82	30.3	2	5	90	0.00	29.828 
21:45	35.2	35.2	35.2	82	30.3	1	3	90	0.00	29.822 
21:50	35.2	35.2	35.2	82	30.3	1	4	90	0.00	29.822 
21:55	35.0	35.0	35.0	83	30.4	0	2	90	0.00	29.822 
22:00	35.0	35.0	35.0	83	30.4	0	0	---	0.00	29.828 
22:05	35.0	35.0	35.0	84	30.7	0	0	---	0.01	29.828 
22:10	34.9	34.9	34.9	84	30.6	0	0	---	0.00	29.828 
22:15	34.9	34.9	34.9	84	30.6	0	1	90	0.00	29.821 
22:20	34.9	34.9	34.9	85	30.9	0	1	90	0.01	29.821 
22:25	34.9	34.9	34.9	85	30.9	0	1	90	0.00	29.821 
22:30	34.7	34.7	34.7	86	30.9	0	1	90	0.01	29.840 
22:35	34.6	34.6	34.6	86	30.9	0	0	---	0.01	29.840 
22:40	34.4	34.4	34.4	87	30.9	0	1	90	0.00	29.840 
22:45	34.4	34.4	34.4	87	30.9	0	0	---	0.01	29.833 
22:50	34.3	34.3	34.3	88	31.1	0	0	---	0.00	29.833 
22:55	34.3	34.3	34.3	88	31.1	0	1	90	0.01	29.833 
23:00	34.1	34.1	34.1	88	30.9	0	1	90	0.00	29.823 
23:05	34.1	34.1	34.1	89	31.2	0	1	90	0.00	29.823 
23:10	34.0	34.0	34.0	89	31.1	1	3	90	0.00	29.823 
23:15	34.0	34.0	34.0	89	31.1	0	2	90	0.01	29.808 
23:20	33.8	33.8	33.8	89	30.9	0	3	90	0.00	29.808 
23:25	33.7	33.7	33.7	90	31.1	1	5	90	0.00	29.808 
23:30	33.5	33.5	33.5	90	30.9	1	4	90	0.01	29.800 
23:35	33.5	33.5	33.5	90	30.9	0	2	90	0.00	29.800 
23:40	33.4	33.4	33.4	90	30.8	0	2	90	0.00	29.800 
23:45	33.4	33.4	33.4	91	31.1	0	2	90	0.00	29.797 
23:50	33.2	33.2	33.2	91	30.9	1	3	90	0.00	29.797 
23:55	33.2	33.2	33.2	91	30.9	2	3	90	0.00	29.797 

CoCoRaHS
IN-AL-39
A2 Web Hosting
Creative Commons License
GoDaddy
search engine by freefind advanced

loaded 2018-11-14 04:37:58 • last modified 2010-11-18 10:43:29
Privacy PolicyDisclaimer
• wx.awcolley.com is powered by PmWiki v.2002016 •
• all content (unless otherwise noted) © 2018 A W Colley